Time;durP1;ratioP1;P1;durP2;ratioP2;P2;SDS_P1;SDS_P2;PMS_P1;PMS_P2;Temp;Humidity;BMP_temperature;BMP_pressure;BME280_temperature;BME280_humidity;BME280_pressure;Samples;Min_cycle;Max_cycle;Signal;HPM_P1;HPM_P2
2022/04/12 00:01:25;;;;;;;;;1.00;1.00;;;;;14.93;57.28;99831.59;5081271;22;45548;-80
2022/04/12 00:03:50;;;;;;;;;2.50;1.00;;;;;14.93;57.18;99825.41;5058089;28;45375;-81
2022/04/12 00:06:15;;;;;;;;;1.75;1.75;;;;;14.91;57.16;99827.31;5057284;28;46235;-79
2022/04/12 00:08:40;;;;;;;;;1.50;1.50;;;;;14.86;57.11;99819.53;5057436;28;51194;-80
2022/04/12 00:11:06;;;;;;;;;1.00;1.00;;;;;14.86;57.08;99816.88;5060253;28;45347;-80
2022/04/12 00:13:31;;;;;;;;;1.00;1.00;;;;;14.81;57.37;99821.56;5058736;28;45498;-80
2022/04/12 00:15:57;;;;;;;;;1.00;1.00;;;;;14.83;57.22;99825.00;5055589;28;45531;-79
2022/04/12 00:21:07;;;;;;;;;3.00;2.00;;;;;14.79;57.23;99830.53;5058976;28;45482;-81
2022/04/12 00:23:32;;;;;;;;;1.50;1.25;;;;;14.77;57.73;99824.44;5062432;28;45394;-80
2022/04/12 00:25:57;;;;;;;;;1.75;1.00;;;;;14.73;57.46;99827.25;5057309;28;45500;-80
2022/04/12 00:28:23;;;;;;;;;2.00;2.00;;;;;14.70;57.90;99835.41;5053383;28;45375;-79
2022/04/12 00:30:48;;;;;;;;;1.00;1.00;;;;;14.70;57.82;99829.22;5058679;28;45401;-80
2022/04/12 00:33:14;;;;;;;;;1.00;1.00;;;;;14.67;57.61;99835.53;5058387;28;45569;-80
2022/04/12 00:35:40;;;;;;;;;0.50;0.50;;;;;14.64;57.97;99834.84;5056006;28;45894;-80
2022/04/12 00:38:17;;;;;;;;;1.50;0.50;;;;;14.60;58.16;99823.44;5044762;28;45456;-80
2022/04/12 00:40:43;;;;;;;;;1.75;1.00;;;;;14.57;58.28;99823.59;5043073;28;45389;-79
2022/04/12 00:43:08;;;;;;;;;1.00;1.00;;;;;14.51;58.47;99823.88;5057294;28;45461;-80
2022/04/12 00:45:34;;;;;;;;;2.75;1.25;;;;;14.47;58.42;99812.56;5056329;28;45692;-81
2022/04/12 00:47:59;;;;;;;;;3.25;3.25;;;;;14.42;58.64;99803.91;5042429;28;45395;-80
2022/04/12 00:50:24;;;;;;;;;1.00;1.00;;;;;14.40;58.90;99808.47;5066331;28;45574;-79
2022/04/12 00:52:53;;;;;;;;;7.00;2.25;;;;;14.35;59.02;99803.34;5078808;28;45308;-80
2022/04/12 00:55:19;;;;;;;;;1.25;1.25;;;;;14.31;59.30;99796.47;5075491;28;46265;-80
2022/04/12 00:57:44;;;;;;;;;1.00;1.00;;;;;14.27;59.09;99805.53;5059139;28;45698;-80
2022/04/12 01:00:12;;;;;;;;;0.25;0.25;;;;;14.19;59.44;99792.59;5049600;28;45561;-80
2022/04/12 01:02:39;;;;;;;;;0.50;0.50;;;;;14.18;59.63;99800.63;5057980;28;45427;-79
2022/04/12 01:05:05;;;;;;;;;1.00;1.00;;;;;14.14;59.89;99799.06;5057184;27;46653;-80
2022/04/12 01:07:31;;;;;;;;;3.50;2.00;;;;;14.13;59.89;99802.66;5080492;27;45464;-80
2022/04/12 01:09:58;;;;;;;;;1.25;1.25;;;;;14.08;59.85;99794.91;5077602;28;45364;-80
2022/04/12 01:12:26;;;;;;;;;2.50;1.00;;;;;14.02;60.40;99790.72;5076732;27;45532;-79
2022/04/12 01:14:52;;;;;;;;;1.00;1.00;;;;;13.99;60.07;99790.88;5078366;27;45406;-79
2022/04/12 01:17:17;;;;;;;;;0.50;0.50;;;;;13.94;60.25;99790.22;5097335;27;45393;-80
2022/04/12 01:19:43;;;;;;;;;1.50;1.50;;;;;13.91;60.74;99793.03;5087193;27;45240;-81
2022/04/12 01:22:12;;;;;;;;;1.00;1.00;;;;;13.91;60.81;99794.81;5077864;28;45348;-79
2022/04/12 01:24:38;;;;;;;;;0.25;0.25;;;;;13.88;60.89;99809.09;5080324;28;45351;-79
2022/04/12 01:27:04;;;;;;;;;4.75;1.75;;;;;13.82;60.64;99804.09;5081611;27;45335;-80
2022/04/12 01:29:35;;;;;;;;;3.00;1.00;;;;;13.82;61.22;99799.63;5078372;28;45396;-80
2022/04/12 01:32:07;;;;;;;;;1.00;1.00;;;;;13.79;61.21;99801.56;5056803;28;45387;-80
2022/04/12 01:34:36;;;;;;;;;1.50;1.50;;;;;13.76;61.13;99788.44;5038367;28;47218;-79
2022/04/12 01:37:05;;;;;;;;;4.25;2.00;;;;;13.76;61.28;99796.41;5074618;27;45431;-79
2022/04/12 01:39:31;;;;;;;;;3.50;1.25;;;;;13.70;61.12;99789.56;5076057;27;45426;-81
2022/04/12 01:41:57;;;;;;;;;5.50;0.75;;;;;13.65;61.46;99791.56;5075565;27;45520;-80
2022/04/12 01:44:23;;;;;;;;;1.00;1.00;;;;;13.64;61.63;99800.47;5075978;28;45422;-80
2022/04/12 01:46:48;;;;;;;;;1.50;1.50;;;;;13.61;61.59;99800.59;5075692;27;45406;-79
2022/04/12 01:49:13;;;;;;;;;1.00;1.00;;;;;13.59;61.32;99810.41;5077682;28;45458;-79
2022/04/12 01:51:39;;;;;;;;;0.00;0.00;;;;;13.54;61.46;99810.59;5077747;28;45660;-80
2022/04/12 01:54:05;;;;;;;;;1.25;1.25;;;;;13.54;61.87;99826.53;5076876;28;46041;-80
2022/04/12 01:56:31;;;;;;;;;1.00;1.00;;;;;13.54;61.54;99815.06;5079435;27;45282;-80
2022/04/12 01:58:57;;;;;;;;;1.75;1.50;;;;;13.50;61.63;99815.19;5080165;28;45265;-81
2022/04/12 02:01:23;;;;;;;;;1.25;1.00;;;;;13.48;62.24;99805.56;5076995;28;45281;-79
2022/04/12 02:03:48;;;;;;;;;1.00;1.00;;;;;13.48;61.84;99801.16;5076425;28;45303;-79
2022/04/12 02:06:13;;;;;;;;;5.00;2.00;;;;;13.46;61.45;99802.13;5074802;28;45330;-80
2022/04/12 02:08:40;;;;;;;;;5.00;2.00;;;;;13.44;62.08;99809.31;5076014;28;45360;-80
2022/04/12 02:11:06;;;;;;;;;2.00;2.00;;;;;13.42;62.02;99804.06;5076222;28;45490;-80
2022/04/12 02:13:32;;;;;;;;;3.00;1.50;;;;;13.35;61.89;99789.34;5076586;28;45388;-81
2022/04/12 02:15:57;;;;;;;;;1.00;1.00;;;;;13.35;61.78;99799.97;5076662;28;45422;-80
2022/04/12 02:18:22;;;;;;;;;5.00;2.00;;;;;13.33;62.03;99800.03;5077094;28;45425;-80
2022/04/12 02:20:48;;;;;;;;;1.75;1.75;;;;;13.29;61.60;99795.75;5076883;28;45402;-80
2022/04/12 02:23:13;;;;;;;;;3.50;2.00;;;;;13.28;61.99;99793.16;5076170;28;45390;-81
2022/04/12 02:25:38;;;;;;;;;4.75;4.75;;;;;13.26;61.96;99779.94;5080931;27;45435;-81
2022/04/12 02:28:04;;;;;;;;;2.00;2.00;;;;;13.23;62.11;99774.78;5060864;28;45532;-80
2022/04/12 02:30:29;;;;;;;;;2.00;2.00;;;;;13.26;62.06;99787.06;5077842;28;45414;-80
2022/04/12 02:32:55;;;;;;;;;4.25;4.25;;;;;13.26;61.74;99790.56;5076839;28;45981;-80
2022/04/12 02:35:20;;;;;;;;;1.50;1.00;;;;;13.18;62.21;99787.41;5076591;27;45344;-81
2022/04/12 02:37:45;;;;;;;;;2.00;2.00;;;;;13.18;61.79;99800.66;5076423;28;45564;-80
2022/04/12 02:40:11;;;;;;;;;2.00;1.00;;;;;13.20;62.18;99800.59;5076057;28;45240;-80
2022/04/12 02:42:36;;;;;;;;;1.00;1.00;;;;;13.10;62.24;99789.50;5075490;28;46529;-81
2022/04/12 02:45:02;;;;;;;;;1.25;1.25;;;;;13.15;62.15;99795.50;5076835;28;45322;-80
2022/04/12 02:47:28;;;;;;;;;2.00;2.00;;;;;13.14;61.67;99791.09;5075017;27;45425;-75
2022/04/12 02:49:54;;;;;;;;;1.75;1.00;;;;;13.14;62.01;99801.72;5075278;28;45396;-76
2022/04/12 02:52:19;;;;;;;;;1.75;1.75;;;;;13.14;62.20;99807.88;5074523;28;45375;-76
2022/04/12 02:54:45;;;;;;;;;1.25;1.25;;;;;13.12;61.96;99790.31;5077055;28;45458;-75
2022/04/12 02:57:10;;;;;;;;;1.00;1.00;;;;;13.11;61.58;99796.53;5077661;27;45481;-75
2022/04/12 02:59:35;;;;;;;;;4.50;1.00;;;;;13.10;61.73;99789.50;5074543;28;45587;-76
2022/04/12 03:02:01;;;;;;;;;1.00;1.00;;;;;13.05;61.66;99788.84;5074853;28;46093;-75
2022/04/12 03:04:26;;;;;;;;;5.00;1.00;;;;;13.08;61.16;99786.06;5074045;28;45449;-76
2022/04/12 03:06:51;;;;;;;;;2.00;1.00;;;;;13.02;61.56;99783.66;5059202;27;45546;-76
2022/04/12 03:09:18;;;;;;;;;1.50;1.00;;;;;13.04;61.54;99774.72;5094866;27;45568;-76
2022/04/12 03:11:43;;;;;;;;;1.50;1.50;;;;;13.00;61.21;99765.16;5094528;27;46077;-77
2022/04/12 03:14:08;;;;;;;;;3.00;1.50;;;;;12.98;61.52;99759.03;5094809;27;45438;-76
2022/04/12 03:16:34;;;;;;;;;2.50;1.00;;;;;12.93;61.57;99753.09;5081409;27;45402;-76
2022/04/12 03:18:59;;;;;;;;;1.50;1.50;;;;;12.95;61.54;99760.06;5055287;28;45412;-76
2022/04/12 03:21:25;;;;;;;;;1.00;1.00;;;;;12.94;61.29;99757.47;5073556;28;45328;-76
2022/04/12 03:23:50;;;;;;;;;4.50;2.50;;;;;12.93;61.75;99759.25;5073809;28;45528;-76
2022/04/12 03:26:15;;;;;;;;;5.00;2.00;;;;;12.91;61.77;99757.59;5078524;28;45369;-76
2022/04/12 03:28:41;;;;;;;;;1.50;1.00;;;;;12.92;62.02;99759.31;5076720;28;45513;-76
2022/04/12 03:31:06;;;;;;;;;0.75;0.75;;;;;12.88;62.11;99763.88;5074583;28;46136;-76
2022/04/12 03:33:31;;;;;;;;;1.50;1.50;;;;;12.87;61.37;99756.84;5074273;28;45394;-77
2022/04/12 03:35:57;;;;;;;;;1.75;1.75;;;;;12.82;61.24;99750.03;5072771;27;45386;-76
2022/04/12 03:38:22;;;;;;;;;2.50;2.00;;;;;12.80;61.22;99763.38;5055538;28;45348;-76
2022/04/12 03:40:47;;;;;;;;;2.00;1.25;;;;;12.80;60.97;99771.31;5073761;28;45893;-76
2022/04/12 03:43:13;;;;;;;;;4.00;2.00;;;;;12.79;61.14;99782.84;5073960;28;45346;-76
2022/04/12 03:45:38;;;;;;;;;5.00;1.50;;;;;12.79;60.56;99782.84;5074042;27;45288;-76
2022/04/12 03:48:04;;;;;;;;;3.00;1.50;;;;;12.82;60.93;99785.38;5092753;27;45653;-78
2022/04/12 03:50:31;;;;;;;;;1.25;1.25;;;;;12.82;60.89;99792.47;5091651;27;47186;-76
2022/04/12 03:52:56;;;;;;;;;0.25;0.25;;;;;12.80;60.51;99787.22;5073055;28;45399;-76
2022/04/12 03:55:30;;;;;;;;;2.00;2.00;;;;;12.81;60.15;99778.31;5074074;28;45420;-76
2022/04/12 03:58:00;;;;;;;;;1.00;1.00;;;;;12.82;60.11;99780.06;5057070;28;45708;-76
2022/04/12 04:00:27;;;;;;;;;1.00;1.00;;;;;12.82;59.70;99780.06;5055520;28;46095;-75
2022/04/12 04:02:53;;;;;;;;;1.00;1.00;;;;;12.75;59.33;99771.50;5054663;28;45425;-80
2022/04/12 04:05:18;;;;;;;;;1.25;1.00;;;;;12.76;59.09;99767.91;5038620;28;45337;-80
2022/04/12 04:07:44;;;;;;;;;1.00;1.00;;;;;12.78;58.95;99763.44;5074628;27;45278;-79
2022/04/12 04:10:09;;;;;;;;;1.75;1.75;;;;;12.76;58.94;99765.25;5074796;28;45913;-80
2022/04/12 04:12:35;;;;;;;;;3.50;3.50;;;;;12.72;58.66;99771.66;5076521;28;45351;-81
2022/04/12 04:15:00;;;;;;;;;4.00;0.50;;;;;12.71;58.19;99766.41;5077767;28;45476;-81
2022/04/12 04:17:26;;;;;;;;;0.50;0.50;;;;;12.67;58.19;99759.50;5076050;28;45569;-80
2022/04/12 04:19:51;;;;;;;;;2.75;1.00;;;;;12.70;58.45;99777.94;5074762;28;45888;-81
2022/04/12 04:22:17;;;;;;;;;0.00;0.00;;;;;12.70;58.06;99776.13;5073957;28;45489;-79
2022/04/12 04:24:42;;;;;;;;;0.00;0.00;;;;;12.69;58.17;99782.34;5075170;28;45370;-80
2022/04/12 04:27:08;;;;;;;;;1.00;1.00;;;;;12.66;57.88;99784.28;5080116;28;45513;-81
2022/04/12 04:29:35;;;;;;;;;1.00;1.00;;;;;12.61;57.83;99784.47;5082878;28;46707;-81
2022/04/12 04:32:00;;;;;;;;;0.00;0.00;;;;;12.61;58.13;99787.97;5078559;28;45402;-80
2022/04/12 04:34:26;;;;;;;;;1.00;1.00;;;;;12.60;58.16;99788.91;5078912;28;45320;-80
2022/04/12 04:36:51;;;;;;;;;4.00;0.00;;;;;12.56;58.25;99795.25;5076906;27;45373;-81
2022/04/12 04:39:16;;;;;;;;;1.25;0.25;;;;;12.57;57.93;99801.41;5077641;28;45464;-80
2022/04/12 04:41:42;;;;;;;;;1.00;1.00;;;;;12.53;57.99;99798.03;5066299;28;45527;-81
2022/04/12 04:44:07;;;;;;;;;1.00;1.00;;;;;12.50;58.10;99787.56;5059571;28;45915;-80
2022/04/12 04:46:33;;;;;;;;;2.00;2.00;;;;;12.46;58.36;99791.25;5070335;27;45334;-79
2022/04/12 04:48:58;;;;;;;;;0.75;0.75;;;;;12.42;58.52;99787.00;5084898;28;45445;-80
2022/04/12 04:51:24;;;;;;;;;0.00;0.00;;;;;12.44;58.84;99798.41;5081716;27;47882;-80
2022/04/12 04:53:57;;;;;;;;;1.00;0.00;;;;;12.29;58.63;99780.47;5059539;28;45362;-80
2022/04/12 04:56:23;;;;;;;;;1.00;1.00;;;;;12.37;58.66;99807.50;5079005;27;45309;-80
2022/04/12 04:58:48;;;;;;;;;0.00;0.00;;;;;12.34;58.97;99802.34;5083892;28;45269;-80
2022/04/12 05:01:13;;;;;;;;;1.00;1.00;;;;;12.33;58.85;99795.28;5081705;28;45433;-80
2022/04/12 05:03:39;;;;;;;;;0.75;0.75;;;;;12.27;59.34;99797.28;5078365;28;45276;-80
2022/04/12 05:06:04;;;;;;;;;1.00;1.00;;;;;12.26;59.21;99802.63;5076966;27;45492;-80
2022/04/12 05:08:29;;;;;;;;;3.75;2.00;;;;;12.23;59.56;99802.75;5077988;28;45949;-80
2022/04/12 05:10:55;;;;;;;;;0.50;0.50;;;;;12.19;59.61;99812.63;5059482;28;45584;-77
2022/04/12 05:13:21;;;;;;;;;1.00;1.00;;;;;12.13;59.30;99815.50;5077082;28;45434;-77
2022/04/12 05:15:46;;;;;;;;;1.00;1.00;;;;;12.17;59.72;99824.19;5075585;28;45535;-78
2022/04/12 05:18:11;;;;;;;;;0.00;0.00;;;;;12.13;59.79;99823.47;5057884;28;46752;-78
2022/04/12 05:20:37;;;;;;;;;4.00;2.00;;;;;12.15;59.74;99837.50;5075978;28;45381;-78
2022/04/12 05:23:02;;;;;;;;;0.25;0.25;;;;;12.18;59.53;99832.09;5075902;28;45346;-77
2022/04/12 05:25:27;;;;;;;;;1.50;0.00;;;;;12.18;59.68;99829.44;5075930;27;45376;-77
2022/04/12 05:27:53;;;;;;;;;0.00;0.00;;;;;12.16;59.49;99823.34;5075243;28;45486;-80
2022/04/12 05:30:19;;;;;;;;;3.00;1.75;;;;;12.19;59.86;99828.53;5056995;28;45414;-76
2022/04/12 05:32:45;;;;;;;;;1.00;1.00;;;;;12.20;59.79;99824.94;5056701;28;45509;-77
2022/04/12 05:35:11;;;;;;;;;0.25;0.25;;;;;12.22;59.72;99841.66;5056405;28;45608;-78
2022/04/12 05:37:46;;;;;;;;;1.25;1.00;;;;;12.25;59.61;99832.69;5074814;27;46178;-79
2022/04/12 05:40:13;;;;;;;;;1.00;1.00;;;;;12.33;59.25;99821.78;5075705;28;45667;-80
2022/04/12 05:42:39;;;;;;;;;2.75;1.00;;;;;12.48;59.36;99823.88;5058305;28;45312;-77
2022/04/12 05:45:07;;;;;;;;;4.75;4.00;;;;;12.74;58.35;99835.22;5076890;28;45527;-77
2022/04/12 05:47:52;;;;;;;;;3.50;1.00;;;;;12.95;58.10;99844.06;5056590;28;47729;-78
2022/04/12 05:50:22;;;;;;;;;1.00;1.00;;;;;13.12;56.76;99840.72;5076153;28;45823;-76
2022/04/12 05:52:48;;;;;;;;;6.50;2.00;;;;;13.46;56.09;99844.59;5075398;28;45561;-77
2022/04/12 05:55:16;;;;;;;;;2.00;2.00;;;;;13.80;55.58;99837.78;5075033;27;45540;-76
2022/04/12 05:57:52;;;;;;;;;1.25;1.00;;;;;14.24;54.22;99837.53;5078483;28;46041;-77
2022/04/12 06:00:22;;;;;;;;;3.50;0.75;;;;;14.54;53.76;99851.19;5079423;28;45602;-79
2022/04/12 06:02:50;;;;;;;;;4.00;4.00;;;;;14.49;52.85;99836.41;5076550;28;45390;-77
2022/04/12 06:05:16;;;;;;;;;3.00;1.00;;;;;14.56;52.86;99849.34;5074195;27;45538;-77
2022/04/12 06:07:43;;;;;;;;;1.00;1.00;;;;;14.76;52.93;99852.84;5074756;28;45401;-78
2022/04/12 06:10:10;;;;;;;;;2.00;2.00;;;;;15.24;51.58;99855.81;5076389;27;45592;-75
2022/04/12 06:12:35;;;;;;;;;3.00;3.00;;;;;15.83;50.51;99852.81;5075567;28;45443;-77
2022/04/12 06:15:01;;;;;;;;;1.00;1.00;;;;;16.47;48.64;99843.97;5075777;27;45376;-77
2022/04/12 06:17:30;;;;;;;;;2.00;1.00;;;;;16.80;47.54;99851.00;5076720;28;46007;-76
2022/04/12 06:20:04;;;;;;;;;0.50;0.50;;;;;17.00;46.75;99843.69;5076230;28;45473;-76
2022/04/12 06:22:30;;;;;;;;;0.00;0.00;;;;;17.19;46.27;99844.34;5057186;28;45316;-77
2022/04/12 06:24:56;;;;;;;;;2.00;2.00;;;;;17.27;45.50;99851.88;5076702;27;45326;-77
2022/04/12 06:27:41;;;;;;;;;2.00;1.00;;;;;17.26;45.44;99860.00;5077823;27;46107;-76
2022/04/12 06:30:10;;;;;;;;;2.00;1.00;;;;;17.34;45.47;99855.03;5079227;28;45426;-77
2022/04/12 06:32:36;;;;;;;;;4.25;1.00;;;;;17.32;45.27;99856.94;5083820;27;45333;-78
2022/04/12 06:35:04;;;;;;;;;7.00;2.00;;;;;17.46;44.31;99875.69;5082627;27;45481;-77
2022/04/12 06:37:29;;;;;;;;;2.00;1.00;;;;;17.63;44.13;99871.13;5074557;27;46335;-76
2022/04/12 06:39:58;;;;;;;;;1.00;1.00;;;;;17.50;43.72;99879.03;5075062;28;45429;-76
2022/04/12 06:42:25;;;;;;;;;1.25;0.25;;;;;17.21;44.46;99884.28;5074887;28;45505;-78
2022/04/12 06:44:50;;;;;;;;;4.00;2.00;;;;;17.17;44.45;99898.75;5074687;27;45454;-77
2022/04/12 06:47:16;;;;;;;;;3.50;1.00;;;;;17.29;44.12;99898.03;5074943;28;45372;-77
2022/04/12 06:49:46;;;;;;;;;2.00;2.00;;;;;17.41;43.74;99901.81;5057917;28;45371;-77
2022/04/12 06:52:12;;;;;;;;;3.00;3.00;;;;;17.74;43.70;99893.59;5073363;27;45456;-77
2022/04/12 06:54:38;;;;;;;;;1.50;1.50;;;;;18.26;42.28;99892.22;5078983;27;45528;-77
2022/04/12 06:57:04;;;;;;;;;2.75;1.75;;;;;18.65;41.70;99898.66;5066525;28;47903;-78
2022/04/12 06:59:29;;;;;;;;;5.50;1.00;;;;;18.89;41.12;99905.22;5054862;28;45417;-76
2022/04/12 07:01:55;;;;;;;;;1.00;1.00;;;;;19.08;39.95;99919.13;5059979;28;45340;-77
2022/04/12 07:04:21;;;;;;;;;0.50;0.00;;;;;19.21;40.00;99919.19;5075351;28;45492;-77
2022/04/12 07:06:47;;;;;;;;;1.25;1.25;;;;;19.21;39.75;99924.56;5069474;28;46727;-76
2022/04/12 07:09:18;;;;;;;;;4.00;1.25;;;;;19.18;39.67;99916.72;5075015;28;45640;-76
2022/04/12 07:11:44;;;;;;;;;1.00;1.00;;;;;19.40;39.04;99926.84;5074476;28;45480;-75
2022/04/12 07:14:10;;;;;;;;;3.00;1.00;;;;;19.69;38.55;99937.41;5073794;28;45464;-76
2022/04/12 07:16:35;;;;;;;;;2.50;1.00;;;;;19.79;38.33;99929.66;5074186;28;45570;-77
2022/04/12 07:19:00;;;;;;;;;1.50;1.50;;;;;19.75;38.19;99936.16;5056633;28;45727;-83
2022/04/12 07:21:28;;;;;;;;;0.25;0.25;;;;;19.78;38.23;99952.06;5057927;28;45352;-83
2022/04/12 07:23:53;;;;;;;;;1.00;1.00;;;;;19.99;37.69;99941.69;5077227;28;45496;-81
2022/04/12 07:26:18;;;;;;;;;5.00;2.50;;;;;20.21;37.71;99944.59;5058722;28;45399;-82
2022/04/12 07:28:44;;;;;;;;;2.00;0.00;;;;;20.92;37.44;99933.31;5077196;28;45408;-81
2022/04/12 07:31:09;;;;;;;;;1.25;1.00;;;;;21.30;35.66;99937.66;5078894;27;45590;-76
2022/04/12 07:33:35;;;;;;;;;1.00;1.00;;;;;21.52;35.56;99942.34;5062408;27;45634;-76
2022/04/12 07:36:00;;;;;;;;;2.00;1.00;;;;;21.55;35.06;99942.09;5085482;27;45696;-81
2022/04/12 07:38:25;;;;;;;;;1.00;1.00;;;;;21.83;34.83;99935.47;5072796;27;45386;-82
2022/04/12 07:40:51;;;;;;;;;1.00;1.00;;;;;21.91;34.34;99937.56;5083827;27;45855;-81
2022/04/12 07:43:16;;;;;;;;;2.25;2.00;;;;;22.24;34.23;99932.34;5090253;27;45649;-76
2022/04/12 07:45:42;;;;;;;;;1.50;1.25;;;;;22.41;33.27;99934.59;5089508;27;46123;-80
2022/04/12 07:48:07;;;;;;;;;4.00;1.25;;;;;22.54;33.06;99924.53;5092149;27;45599;-82
2022/04/12 07:50:33;;;;;;;;;1.50;0.00;;;;;22.56;32.88;99928.94;5087251;27;45467;-80
2022/04/12 07:52:58;;;;;;;;;1.25;0.50;;;;;22.60;33.36;99933.13;5046454;28;45514;-81
2022/04/12 07:55:23;;;;;;;;;1.00;1.00;;;;;22.61;32.92;99932.13;5075083;28;45396;-81
2022/04/12 07:57:49;;;;;;;;;1.00;1.00;;;;;22.61;32.85;99932.13;5070594;28;45482;-82
2022/04/12 08:00:14;;;;;;;;;2.00;0.00;;;;;22.79;32.66;99927.97;5064760;28;45492;-81
2022/04/12 08:02:40;;;;;;;;;1.50;1.00;;;;;22.96;32.66;99917.66;5081139;28;45496;-82
2022/04/12 08:05:06;;;;;;;;;2.75;2.75;;;;;23.40;32.46;99921.19;5077343;28;45427;-82
2022/04/12 08:07:31;;;;;;;;;4.75;3.00;;;;;23.88;31.74;99911.78;5071739;27;45478;-81
2022/04/12 08:09:56;;;;;;;;;2.25;1.25;;;;;24.41;30.93;99916.16;5058944;28;45446;-82
2022/04/12 08:12:22;;;;;;;;;2.50;1.00;;;;;24.42;30.10;99909.78;5059078;28;45364;-82
2022/04/12 08:14:47;;;;;;;;;2.00;0.00;;;;;24.40;30.20;99909.03;5059102;28;45359;-82
2022/04/12 08:17:12;;;;;;;;;1.00;1.00;;;;;24.39;29.97;99907.34;5070238;28;45449;-81
2022/04/12 08:19:38;;;;;;;;;0.50;0.50;;;;;24.39;30.32;99907.34;5059404;28;45401;-81
2022/04/12 08:22:04;;;;;;;;;3.00;1.00;;;;;24.85;30.11;99918.63;5039950;28;45607;-80
2022/04/12 08:24:29;;;;;;;;;0.25;0.25;;;;;24.87;30.28;99905.81;5058173;28;45619;-81
2022/04/12 08:26:55;;;;;;;;;1.25;1.25;;;;;25.26;29.59;99912.13;5071420;28;45417;-80
2022/04/12 08:29:20;;;;;;;;;1.00;0.00;;;;;25.60;28.98;99914.44;5078002;28;45306;-82
2022/04/12 08:31:45;;;;;;;;;1.75;1.00;;;;;26.02;28.60;99924.06;5081155;28;45565;-82
2022/04/12 08:34:11;;;;;;;;;1.75;1.75;;;;;26.54;29.06;99910.94;5080997;28;45529;-82
2022/04/12 08:36:36;;;;;;;;;2.50;1.00;;;;;26.81;27.45;99905.69;5053042;28;45503;-81
2022/04/12 08:39:03;;;;;;;;;1.00;0.75;;;;;27.39;27.36;99910.72;5057511;28;45446;-81
2022/04/12 08:41:29;;;;;;;;;1.50;1.00;;;;;27.70;26.57;99904.03;5069961;28;45551;-80
2022/04/12 08:43:57;;;;;;;;;0.50;0.50;;;;;27.78;25.90;99913.06;5077796;28;45510;-80
2022/04/12 08:46:25;;;;;;;;;0.75;0.00;;;;;27.76;25.81;99914.25;5076931;28;45505;-82
2022/04/12 08:48:52;;;;;;;;;3.50;1.25;;;;;27.87;25.83;99915.84;5078726;28;45513;-82
2022/04/12 08:51:17;;;;;;;;;1.00;1.00;;;;;28.20;25.82;99919.66;5072728;28;45559;-81
2022/04/12 08:53:45;;;;;;;;;1.25;1.00;;;;;28.28;25.89;99914.25;5076536;28;45586;-81
2022/04/12 08:56:11;;;;;;;;;1.00;1.00;;;;;28.50;26.28;99906.53;5075765;28;45540;-77
2022/04/12 08:58:36;;;;;;;;;1.75;1.50;;;;;28.98;24.82;99904.19;5075814;28;45465;-77
2022/04/12 09:01:02;;;;;;;;;1.25;0.75;;;;;28.82;24.46;99905.88;5054818;28;45395;-76
2022/04/12 09:03:27;;;;;;;;;2.00;1.00;;;;;28.86;24.72;99918.13;5056725;28;45999;-77
2022/04/12 09:05:53;;;;;;;;;1.75;0.00;;;;;28.96;24.48;99914.41;5055189;28;45296;-78
2022/04/12 09:08:30;;;;;;;;;2.75;2.75;;;;;28.68;23.80;99906.47;5055984;28;45354;-77
2022/04/12 09:10:58;;;;;;;;;2.00;1.00;;;;;28.76;24.52;99911.97;5055740;28;45381;-78
2022/04/12 09:13:24;;;;;;;;;4.00;0.75;;;;;29.22;24.94;99906.97;5056310;28;46112;-77
2022/04/12 09:15:50;;;;;;;;;1.75;1.75;;;;;29.81;24.07;99900.56;5054501;28;45423;-77
2022/04/12 09:18:32;;;;;;;;;0.00;0.00;;;;;29.83;23.90;99898.50;5056061;28;45414;-76
2022/04/12 09:21:21;;;;;;;;;0.25;0.25;;;;;29.90;22.69;99904.97;5055068;28;45637;-78
2022/04/12 09:23:52;;;;;;;;;1.00;1.00;;;;;29.94;22.76;99895.44;5054814;28;45974;-77
2022/04/12 09:26:28;;;;;;;;;0.50;0.50;;;;;30.01;23.64;99906.50;5054445;28;45455;-77
2022/04/12 09:28:56;;;;;;;;;0.75;0.00;;;;;30.06;23.61;99905.97;5055867;28;45470;-77
2022/04/12 09:31:23;;;;;;;;;0.25;0.00;;;;;30.43;23.67;99899.09;5056415;28;45325;-76
2022/04/12 09:33:51;;;;;;;;;8.25;8.25;;;;;30.74;22.50;99901.00;5066508;28;46751;-81
2022/04/12 09:36:16;;;;;;;;;20.75;20.75;;;;;30.93;22.06;99894.22;5067871;27;45516;-82
2022/04/12 09:38:43;;;;;;;;;1.00;1.00;;;;;30.87;21.94;99893.09;5064039;28;44765;-82
2022/04/12 09:41:19;;;;;;;;;43.75;40.25;;;;;30.84;23.29;99907.06;5065694;28;45527;-81
2022/04/12 09:44:11;;;;;;;;;64.33;56.33;;;;;31.12;23.11;99890.22;5045674;28;47054;-80
2022/04/12 09:46:39;;;;;;;;;87.33;73.00;;;;;31.27;21.76;99888.41;5061355;28;45421;-81
2022/04/12 09:49:06;;;;;;;;;101.25;87.00;;;;;31.22;22.04;99879.94;5074897;28;45702;-80
2022/04/12 09:51:32;;;;;;;;;63.33;54.67;;;;;31.61;21.65;99880.81;5054143;28;45379;-82
2022/04/12 09:53:58;;;;;;;;;17.50;17.50;;;;;31.81;21.46;99876.53;5048294;28;46921;-81
2022/04/12 09:56:29;;;;;;;;;0.00;0.00;;;;;31.73;21.30;99873.88;5057418;28;45459;-82
2022/04/12 09:58:59;;;;;;;;;1.00;0.00;;;;;31.54;21.96;99877.97;5053242;28;45457;-86
2022/04/12 10:01:26;;;;;;;;;1.00;1.00;;;;;31.69;23.30;99889.78;5072132;28;45491;-81
2022/04/12 10:04:01;;;;;;;;;6.00;5.00;;;;;31.79;22.42;99881.31;5086774;27;46057;-82
2022/04/12 10:06:28;;;;;;;;;2.75;1.75;;;;;31.77;21.81;99886.13;5085029;27;45550;-81
2022/04/12 10:08:55;;;;;;;;;0.50;0.50;;;;;31.62;21.34;99888.81;5077589;27;45547;-82
2022/04/12 10:11:23;;;;;;;;;5.00;3.00;;;;;31.63;21.60;99878.78;5089813;27;45520;-82
2022/04/12 10:13:49;;;;;;;;;1.00;1.00;;;;;31.19;22.15;99877.56;5076933;27;46263;-78
2022/04/12 10:16:19;;;;;;;;;3.50;1.00;;;;;31.20;22.54;99867.47;5074706;27;45407;-77
2022/04/12 10:18:45;;;;;;;;;1.25;1.00;;;;;31.32;22.92;99866.88;5074372;28;45430;-78
2022/04/12 10:21:14;;;;;;;;;1.50;1.00;;;;;31.34;21.66;99853.91;5074197;28;45573;-77
2022/04/12 10:23:46;;;;;;;;;1.00;1.00;;;;;31.26;22.32;99856.69;5055152;28;46656;-78
2022/04/12 10:26:18;;;;;;;;;1.00;1.00;;;;;31.20;22.51;99846.50;5073262;28;45417;-78
2022/04/12 10:28:43;;;;;;;;;1.00;1.00;;;;;31.43;22.29;99851.09;5074869;28;45569;-77
2022/04/12 10:31:12;;;;;;;;;1.00;0.00;;;;;31.36;23.28;99840.91;5075417;28;45459;-78
2022/04/12 10:33:37;;;;;;;;;1.00;1.00;;;;;31.11;22.17;99832.09;5075160;27;45686;-81
2022/04/12 10:36:05;;;;;;;;;0.00;0.00;;;;;31.36;22.64;99840.91;5082274;28;45394;-82
2022/04/12 10:38:39;;;;;;;;;0.00;0.00;;;;;31.41;22.63;99842.25;5078061;28;45469;-75
2022/04/12 10:41:26;;;;;;;;;0.00;0.00;;;;;30.52;22.85;99861.72;5074448;28;45585;-77
2022/04/12 10:43:56;;;;;;;;;0.75;0.75;;;;;29.72;24.56;99868.91;5057967;28;45396;-78
2022/04/12 10:46:22;;;;;;;;;0.75;0.75;;;;;29.70;24.24;99868.19;5074735;28;45516;-77
2022/04/12 10:48:54;;;;;;;;;1.00;1.00;;;;;29.91;23.89;99875.88;5073167;28;45557;-79
2022/04/12 10:51:36;;;;;;;;;1.00;0.00;;;;;30.15;24.67;99864.06;5075143;28;45459;-78
2022/04/12 10:54:01;;;;;;;;;0.00;0.00;;;;;30.37;23.97;99864.31;5078346;27;45534;-79
2022/04/12 10:56:27;;;;;;;;;1.00;0.00;;;;;30.36;23.78;99874.38;5084734;27;45343;-79
2022/04/12 10:58:52;;;;;;;;;1.50;1.00;;;;;30.07;23.63;99877.72;5074386;28;45374;-79
2022/04/12 11:01:32;;;;;;;;;0.00;0.00;;;;;29.71;24.36;99875.34;5074736;28;45471;-78
2022/04/12 11:04:01;;;;;;;;;0.25;0.25;;;;;29.34;24.08;99882.19;5054556;28;47112;-78
2022/04/12 11:06:33;;;;;;;;;1.00;1.00;;;;;29.05;25.05;99889.75;5061332;28;45674;-79
2022/04/12 11:12:03;;;;;;;;;0.00;0.00;;;;;28.87;25.70;99894.50;5052000;28;45579;-79
2022/04/12 11:14:38;;;;;;;;;0.00;0.00;;;;;28.82;25.66;99911.28;5074452;28;46232;-78
2022/04/12 11:17:12;;;;;;;;;0.75;0.25;;;;;28.87;25.59;99917.06;5073662;28;45350;-79
2022/04/12 11:19:45;;;;;;;;;0.00;0.00;;;;;28.75;26.12;99910.25;5074637;28;45487;-79
2022/04/12 11:22:13;;;;;;;;;10.00;5.00;;;;;28.47;25.90;99924.03;5072770;27;45523;-79
2022/04/12 11:24:39;;;;;;;;;2.25;2.00;;;;;28.33;26.43;99913.75;5074796;28;46289;-83
2022/04/12 11:27:10;;;;;;;;;1.75;1.00;;;;;27.94;26.37;99909.63;5076371;28;45489;-82
2022/04/12 11:29:38;;;;;;;;;1.00;1.00;;;;;27.62;26.66;99921.09;5075300;28;45327;-78
2022/04/12 11:32:04;;;;;;;;;1.75;1.00;;;;;27.55;27.36;99922.72;5073202;27;45382;-79
2022/04/12 11:34:31;;;;;;;;;2.50;2.50;;;;;27.93;27.40;99901.63;5056070;28;47559;-78
2022/04/12 11:37:02;;;;;;;;;2.50;2.00;;;;;28.36;26.64;99905.28;5058807;28;45757;-77
2022/04/12 11:39:34;;;;;;;;;4.00;2.00;;;;;28.73;26.39;99905.97;5084417;28;45457;-76